createdAt,value
2018-03-06T00:00:53.854Z,97956.08
2018-03-06T00:03:21.259Z,97959.15
2018-03-06T00:05:48.917Z,97960.86
2018-03-06T00:08:16.322Z,97961.02
2018-03-06T00:10:43.750Z,97962.56
2018-03-06T00:13:11.161Z,97958.45
2018-03-06T00:15:38.595Z,97956.27
2018-03-06T00:18:06.417Z,97953.07
2018-03-06T00:20:33.844Z,97952.38
2018-03-06T00:23:01.278Z,97948.75
2018-03-06T00:25:28.674Z,97954.50
2018-03-06T00:27:56.098Z,97948.47
2018-03-06T00:30:23.526Z,97956.33
2018-03-06T00:32:50.938Z,97951.52
2018-03-06T00:35:18.372Z,97955.38
2018-03-06T00:37:45.784Z,97960.69
2018-03-06T00:40:13.202Z,97959.90
2018-03-06T00:42:40.986Z,97960.18
2018-03-06T00:45:08.425Z,97951.09
2018-03-06T00:47:35.858Z,97950.95
2018-03-06T00:50:03.276Z,97948.74
2018-03-06T00:52:30.686Z,97947.99
2018-03-06T00:54:58.118Z,97934.43
2018-03-06T00:57:25.525Z,97933.88
2018-03-06T00:59:52.955Z,97928.76
2018-03-06T01:02:20.363Z,97926.18
2018-03-06T01:04:47.814Z,97926.13
2018-03-06T01:07:15.221Z,97923.62
2018-03-06T01:09:42.650Z,97920.09
2018-03-06T01:12:10.092Z,97918.06
2018-03-06T01:14:37.506Z,97919.48
2018-03-06T01:17:04.914Z,97917.81
2018-03-06T01:19:32.338Z,97923.19
2018-03-06T01:21:59.742Z,97920.67
2018-03-06T01:24:27.177Z,97921.05
2018-03-06T01:26:54.589Z,97924.84
2018-03-06T01:29:21.998Z,97930.13
2018-03-06T01:31:49.433Z,97926.89
2018-03-06T01:34:16.838Z,97931.84
2018-03-06T01:36:44.254Z,97924.80
2018-03-06T01:39:11.662Z,97923.50
2018-03-06T01:41:39.082Z,97915.88
2018-03-06T01:44:06.506Z,97915.36
2018-03-06T01:46:33.930Z,97910.14
2018-03-06T01:49:01.342Z,97907.76
2018-03-06T01:51:28.757Z,97908.90
2018-03-06T01:53:56.194Z,97901.45
2018-03-06T01:56:23.611Z,97899.14
2018-03-06T01:58:51.023Z,97896.44
2018-03-06T02:01:18.499Z,97891.13
2018-03-06T02:03:45.933Z,97892.38
2018-03-06T02:06:13.345Z,97890.12
2018-03-06T02:08:40.757Z,97878.98
2018-03-06T02:11:08.170Z,97881.22
2018-03-06T02:13:35.591Z,97885.33
2018-03-06T02:16:03.006Z,97877.50
2018-03-06T02:18:30.419Z,97869.03
2018-03-06T02:20:57.840Z,97876.88
2018-03-06T02:23:25.266Z,97876.17
2018-03-06T02:25:52.678Z,97877.26
2018-03-06T02:28:20.094Z,97880.59
2018-03-06T02:30:47.502Z,97881.59
2018-03-06T02:33:14.923Z,97882.53
2018-03-06T02:35:42.333Z,97880.02
2018-03-06T02:38:09.755Z,97883.07
2018-03-06T02:40:37.161Z,97888.23
2018-03-06T02:43:04.578Z,97889.68
2018-03-06T02:45:31.990Z,97897.06
2018-03-06T02:47:59.414Z,97893.67
2018-03-06T02:50:26.830Z,97888.64
2018-03-06T02:52:54.246Z,97892.27
2018-03-06T02:55:21.670Z,97891.59
2018-03-06T02:57:49.077Z,97888.59
2018-03-06T03:00:16.493Z,97876.36
2018-03-06T03:02:43.915Z,97873.31
2018-03-06T03:05:11.329Z,97882.06
2018-03-06T03:07:38.741Z,97873.57
2018-03-06T03:10:06.169Z,97866.75
2018-03-06T03:12:33.573Z,97870.97
2018-03-06T03:15:00.997Z,97874.64
2018-03-06T03:17:28.410Z,97873.55
2018-03-06T03:19:55.826Z,97872.77
2018-03-06T03:22:23.234Z,97872.97
2018-03-06T03:24:50.661Z,97870.73
2018-03-06T03:27:18.080Z,97880.06
2018-03-06T03:29:45.513Z,97872.36
2018-03-06T03:32:12.929Z,97869.71
2018-03-06T03:34:40.337Z,97871.45
2018-03-06T03:37:07.767Z,97877.02
2018-03-06T03:39:35.182Z,97879.41
2018-03-06T03:42:02.610Z,97878.82
2018-03-06T03:44:30.022Z,97877.16
2018-03-06T03:46:57.434Z,97880.19
2018-03-06T03:49:24.873Z,97873.98
2018-03-06T03:51:52.294Z,97870.23
2018-03-06T03:54:19.709Z,97870.99
2018-03-06T03:56:47.130Z,97869.34
2018-03-06T03:59:14.534Z,97876.96
2018-03-06T04:01:41.956Z,97880.54
2018-03-06T04:04:09.377Z,97880.31
2018-03-06T04:06:36.846Z,97870.88
2018-03-06T04:09:04.262Z,97874.70
2018-03-06T04:11:31.666Z,97872.14
2018-03-06T04:13:59.081Z,97873.19
2018-03-06T04:16:26.505Z,97872.88
2018-03-06T04:18:53.926Z,97868.27
2018-03-06T04:21:21.334Z,97860.97
2018-03-06T04:23:48.754Z,97865.53
2018-03-06T04:26:16.162Z,97866.77
2018-03-06T04:28:43.577Z,97857.97
2018-03-06T04:31:10.995Z,97854.72
2018-03-06T04:33:38.402Z,97855.59
2018-03-06T04:36:05.801Z,97857.97
2018-03-06T04:38:33.209Z,97861.99
2018-03-06T04:41:00.618Z,97859.86
2018-03-06T04:43:28.298Z,97856.89
2018-03-06T04:45:55.705Z,97860.81
2018-03-06T04:48:23.113Z,97860.44
2018-03-06T04:50:50.537Z,97852.54
2018-03-06T04:53:17.946Z,97853.55
2018-03-06T04:55:45.366Z,97851.44
2018-03-06T04:58:12.777Z,97849.80
2018-03-06T05:00:40.195Z,97854.37
2018-03-06T05:03:07.614Z,97850.11
2018-03-06T05:05:35.029Z,97854.09
2018-03-06T05:08:02.439Z,97855.05
2018-03-06T05:10:29.854Z,97856.95
2018-03-06T05:12:57.262Z,97851.20
2018-03-06T05:15:24.678Z,97851.92
2018-03-06T05:17:52.086Z,97856.38
2018-03-06T05:20:19.505Z,97859.39
2018-03-06T05:22:46.910Z,97858.30
2018-03-06T05:25:14.329Z,97855.39
2018-03-06T05:27:41.741Z,97853.00
2018-03-06T05:30:09.150Z,97848.95
2018-03-06T05:32:36.570Z,97852.42
2018-03-06T05:35:03.985Z,97858.38
2018-03-06T05:37:31.414Z,97856.44
2018-03-06T05:39:58.838Z,97856.16
2018-03-06T05:42:32.126Z,97862.22
2018-03-06T05:44:59.535Z,97860.33
2018-03-06T05:47:27.006Z,97865.66
2018-03-06T05:49:54.421Z,97862.35
2018-03-06T05:52:22.733Z,97862.52
2018-03-06T05:54:50.158Z,97863.34
2018-03-06T05:57:17.582Z,97861.75
2018-03-06T05:59:44.989Z,97861.84
2018-03-06T06:02:12.429Z,97866.71
2018-03-06T06:04:39.856Z,97859.13
2018-03-06T06:07:07.277Z,97867.23
2018-03-06T06:09:34.736Z,97865.42
2018-03-06T06:12:02.158Z,97862.86
2018-03-06T06:14:29.626Z,97874.09
2018-03-06T06:16:57.168Z,97874.84
2018-03-06T06:19:24.569Z,97873.63
2018-03-06T06:21:51.982Z,97875.12
2018-03-06T06:24:19.393Z,97878.37
2018-03-06T06:26:46.823Z,97879.88
2018-03-06T06:29:14.229Z,97884.72
2018-03-06T06:31:41.648Z,97875.14
2018-03-06T06:34:09.062Z,97884.00
2018-03-06T06:36:36.468Z,97884.20
2018-03-06T06:39:03.927Z,97886.72
2018-03-06T06:41:31.333Z,97887.72
2018-03-06T06:43:58.750Z,97893.56
2018-03-06T06:46:26.158Z,97891.94
2018-03-06T06:48:53.590Z,97894.41
2018-03-06T06:51:21.002Z,97897.44
2018-03-06T06:53:48.407Z,97894.69
2018-03-06T06:56:15.821Z,97896.95
2018-03-06T06:58:43.225Z,97890.92
2018-03-06T07:01:10.633Z,97889.51
2018-03-06T07:03:38.046Z,97885.31
2018-03-06T07:06:05.467Z,97878.23
2018-03-06T07:08:32.878Z,97883.48
2018-03-06T07:11:00.298Z,97883.17
2018-03-06T07:13:27.706Z,97873.53
2018-03-06T07:15:55.121Z,97882.75
2018-03-06T07:18:22.530Z,97875.77
2018-03-06T07:20:49.951Z,97884.98
2018-03-06T07:23:17.354Z,97885.81
2018-03-06T07:25:44.762Z,97889.37
2018-03-06T07:28:12.165Z,97880.50
2018-03-06T07:30:39.578Z,97881.36
2018-03-06T07:33:07.013Z,97878.94
2018-03-06T07:35:34.435Z,97881.08
2018-03-06T07:38:01.842Z,97889.30
2018-03-06T07:40:29.246Z,97888.70
2018-03-06T07:42:56.674Z,97889.72
2018-03-06T07:45:24.105Z,97891.36
2018-03-06T07:47:51.515Z,97888.81
2018-03-06T07:50:18.922Z,97889.84
2018-03-06T07:52:46.346Z,97887.02
2018-03-06T07:55:13.755Z,97883.34
2018-03-06T07:57:41.186Z,97884.94
2018-03-06T08:00:08.660Z,97882.31
2018-03-06T08:02:36.101Z,97880.50
2018-03-06T08:05:03.516Z,97881.63
2018-03-06T08:07:30.933Z,97887.44
2018-03-06T08:09:58.337Z,97885.39
2018-03-06T08:12:25.758Z,97889.37
2018-03-06T08:14:53.166Z,97886.80
2018-03-06T08:17:20.569Z,97886.39
2018-03-06T08:19:47.986Z,97885.58
2018-03-06T08:22:15.381Z,97889.05
2018-03-06T08:24:42.806Z,97884.60
2018-03-06T08:27:10.213Z,97886.34
2018-03-06T08:29:37.626Z,97882.89
2018-03-06T08:32:05.034Z,97879.10
2018-03-06T08:34:32.441Z,97872.36
2018-03-06T08:36:59.845Z,97874.55
2018-03-06T08:39:27.261Z,97872.80
2018-03-06T08:41:54.665Z,97868.38
2018-03-06T08:44:22.084Z,97868.54
2018-03-06T08:46:49.494Z,97871.92
2018-03-06T08:49:16.913Z,97867.59
2018-03-06T08:51:44.323Z,97866.89
2018-03-06T08:54:11.725Z,97862.23
2018-03-06T08:56:39.142Z,97862.82
2018-03-06T08:59:06.550Z,97862.92
2018-03-06T09:01:33.961Z,97865.06
2018-03-06T09:04:01.370Z,97867.98
2018-03-06T09:06:28.786Z,97870.67
2018-03-06T09:08:56.205Z,97858.66
2018-03-06T09:11:23.621Z,97860.02
2018-03-06T09:13:51.030Z,97871.74
2018-03-06T09:16:18.446Z,97869.50
2018-03-06T09:18:45.862Z,97869.22
2018-03-06T09:21:13.277Z,97874.13
2018-03-06T09:23:40.692Z,97871.08
2018-03-06T09:26:08.109Z,97863.98
2018-03-06T09:28:35.533Z,97859.31
2018-03-06T09:31:02.974Z,97860.22
2018-03-06T09:33:30.393Z,97865.00
2018-03-06T09:35:57.829Z,97862.02
2018-03-06T09:38:25.250Z,97853.78
2018-03-06T09:40:52.674Z,97864.65
2018-03-06T09:43:20.110Z,97863.33
2018-03-06T09:45:47.518Z,97869.52
2018-03-06T09:48:14.958Z,97873.18
2018-03-06T09:50:42.400Z,97872.77
2018-03-06T09:53:09.826Z,97874.50
2018-03-06T09:55:37.286Z,97869.50
2018-03-06T09:58:04.760Z,97874.52
2018-03-06T10:00:32.190Z,97877.25
2018-03-06T10:02:59.693Z,97867.20
2018-03-06T10:05:27.110Z,97864.33
2018-03-06T10:07:54.522Z,97873.12
2018-03-06T10:10:21.933Z,97880.59
2018-03-06T10:12:49.349Z,97877.05
2018-03-06T10:15:16.765Z,97870.20
2018-03-06T10:17:44.173Z,97872.11
2018-03-06T10:20:11.643Z,97878.05
2018-03-06T10:22:39.066Z,97870.50
2018-03-06T10:25:06.489Z,97872.16
2018-03-06T10:27:33.949Z,97880.06
2018-03-06T10:30:01.379Z,97877.70
2018-03-06T10:32:28.808Z,97878.41
2018-03-06T10:34:56.250Z,97873.38
2018-03-06T10:37:23.679Z,97878.94
2018-03-06T10:39:51.128Z,97875.92
2018-03-06T10:42:18.533Z,97875.34
2018-03-06T10:44:45.955Z,97881.39
2018-03-06T10:47:13.387Z,97871.59
2018-03-06T10:49:40.804Z,97870.66
2018-03-06T10:52:08.237Z,97871.60
2018-03-06T10:54:35.645Z,97864.20
2018-03-06T10:57:03.085Z,97866.98
2018-03-06T10:59:30.515Z,97863.23
2018-03-06T11:01:57.936Z,97868.30
2018-03-06T11:04:25.359Z,97862.05
2018-03-06T11:06:52.767Z,97865.80
2018-03-06T11:09:20.176Z,97863.59
2018-03-06T11:11:47.601Z,97862.95
2018-03-06T11:14:15.037Z,97858.84
2018-03-06T11:16:42.454Z,97854.73
2018-03-06T11:19:09.871Z,97865.66
2018-03-06T11:21:37.294Z,97859.61
2018-03-06T11:24:04.738Z,97861.16
2018-03-06T11:26:32.155Z,97861.19
2018-03-06T11:28:59.594Z,97854.98
2018-03-06T11:31:27.009Z,97863.81
2018-03-06T11:33:54.436Z,97859.63
2018-03-06T11:36:21.841Z,97864.39
2018-03-06T11:38:49.278Z,97860.02
2018-03-06T11:41:16.716Z,97862.04
2018-03-06T11:43:44.139Z,97862.78
2018-03-06T11:46:11.591Z,97861.12
2018-03-06T11:48:39.010Z,97871.80
2018-03-06T11:51:06.442Z,97857.53
2018-03-06T11:53:33.861Z,97853.59
2018-03-06T11:56:01.344Z,97862.39
2018-03-06T11:58:28.726Z,97863.41
2018-03-06T12:00:56.137Z,97858.16
2018-03-06T12:03:23.562Z,97851.70
2018-03-06T12:05:50.989Z,97854.08
2018-03-06T12:08:18.410Z,97848.92
2018-03-06T12:10:45.830Z,97852.16
2018-03-06T12:13:13.262Z,97852.69
2018-03-06T12:15:40.704Z,97851.56
2018-03-06T12:18:08.123Z,97849.44
2018-03-06T12:20:35.533Z,97846.94
2018-03-06T12:23:02.950Z,97845.16
2018-03-06T12:25:30.377Z,97846.38
2018-03-06T12:27:57.813Z,97849.23
2018-03-06T12:30:25.267Z,97839.52
2018-03-06T12:32:52.686Z,97841.18
2018-03-06T12:35:20.123Z,97847.39
2018-03-06T12:37:47.536Z,97849.80
2018-03-06T12:40:14.968Z,97846.42
2018-03-06T12:42:42.386Z,97842.66
2018-03-06T12:45:09.818Z,97843.69
2018-03-06T12:47:37.255Z,97844.03
2018-03-06T12:50:04.679Z,97842.17
2018-03-06T12:52:32.138Z,97837.23
2018-03-06T12:54:59.608Z,97834.89
2018-03-06T12:57:26.992Z,97831.61
2018-03-06T12:59:54.405Z,97833.62
2018-03-06T13:02:21.821Z,97831.36
2018-03-06T13:04:49.238Z,97823.85
2018-03-06T13:07:16.666Z,97829.81
2018-03-06T13:09:44.085Z,97820.03
2018-03-06T13:12:11.510Z,97817.19
2018-03-06T13:14:38.949Z,97817.11
2018-03-06T13:17:06.394Z,97817.89
2018-03-06T13:19:33.809Z,97816.62
2018-03-06T13:22:01.222Z,97814.75
2018-03-06T13:24:28.633Z,97812.52
2018-03-06T13:26:56.048Z,97813.77
2018-03-06T13:29:23.476Z,97814.84
2018-03-06T13:31:50.890Z,97817.32
2018-03-06T13:34:18.313Z,97816.14
2018-03-06T13:36:45.733Z,97811.73
2018-03-06T13:39:13.149Z,97811.55
2018-03-06T13:41:40.565Z,97810.80
2018-03-06T13:44:08.847Z,97807.73
2018-03-06T13:46:39.190Z,97812.27
2018-03-06T13:49:06.618Z,97813.02
2018-03-06T13:51:35.093Z,97805.55
2018-03-06T13:54:02.509Z,97807.13
2018-03-06T13:56:30.014Z,97799.19
2018-03-06T13:58:57.426Z,97803.05
2018-03-06T14:01:24.878Z,97812.32
2018-03-06T14:03:52.290Z,97809.80
2018-03-06T14:06:19.747Z,97807.13
2018-03-06T14:08:47.154Z,97809.34
2018-03-06T14:11:14.674Z,97804.50
2018-03-06T14:13:42.198Z,97803.86
2018-03-06T14:16:09.638Z,97810.36
2018-03-06T14:18:37.053Z,97811.72
2018-03-06T14:21:04.494Z,97812.61
2018-03-06T14:23:31.895Z,97812.61
2018-03-06T14:25:59.358Z,97810.17
2018-03-06T14:28:26.773Z,97810.70
2018-03-06T14:30:54.203Z,97804.96
2018-03-06T14:33:21.618Z,97800.60
2018-03-06T14:35:49.036Z,97805.77
2018-03-06T14:38:16.463Z,97803.36
2018-03-06T14:40:43.870Z,97797.25
2018-03-06T14:43:11.350Z,97805.35
2018-03-06T14:45:38.766Z,97803.65
2018-03-06T14:48:06.210Z,97796.70
2018-03-06T14:50:34.449Z,97799.69
2018-03-06T14:53:01.866Z,97802.38
2018-03-06T14:55:29.397Z,97797.33
2018-03-06T14:57:56.905Z,97796.71
2018-03-06T15:00:24.319Z,97800.48
2018-03-06T15:02:51.744Z,97798.20
2018-03-06T15:05:19.162Z,97791.65
2018-03-06T15:07:47.168Z,97796.31
2018-03-06T15:10:14.578Z,97796.17
2018-03-06T15:12:42.042Z,97793.58
2018-03-06T15:15:09.547Z,97800.89
2018-03-06T15:17:37.062Z,97798.59
2018-03-06T15:20:04.465Z,97800.29
2018-03-06T15:22:31.873Z,97798.80
2018-03-06T15:24:59.410Z,97799.09
2018-03-06T15:27:26.825Z,97797.47
2018-03-06T15:29:54.253Z,97803.52
2018-03-06T15:32:21.666Z,97800.61
2018-03-06T15:34:49.081Z,97799.80
2018-03-06T15:37:22.220Z,97810.47
2018-03-06T15:39:49.681Z,97808.41
2018-03-06T15:42:17.124Z,97807.29
2018-03-06T15:44:44.570Z,97808.45
2018-03-06T15:47:12.012Z,97804.92
2018-03-06T15:49:39.462Z,97799.86
2018-03-06T15:52:06.906Z,97803.73
2018-03-06T15:54:34.364Z,97800.81
2018-03-06T15:57:01.811Z,97810.51
2018-03-06T15:59:29.519Z,97806.41
2018-03-06T16:01:56.962Z,97808.94
2018-03-06T16:04:24.459Z,97815.22
2018-03-06T16:06:51.928Z,97814.23
2018-03-06T16:09:19.367Z,97818.02
2018-03-06T16:11:46.854Z,97807.44
2018-03-06T16:14:14.310Z,97821.17
2018-03-06T16:16:41.764Z,97815.52
2018-03-06T16:19:09.226Z,97822.53
2018-03-06T16:21:36.675Z,97825.03
2018-03-06T16:24:04.115Z,97824.05
2018-03-06T16:26:31.569Z,97824.45
2018-03-06T16:28:59.018Z,97829.73
2018-03-06T16:31:26.463Z,97832.02
2018-03-06T16:33:54.144Z,97834.21
2018-03-06T16:36:21.586Z,97836.23
2018-03-06T16:38:49.030Z,97838.77
2018-03-06T16:41:16.475Z,97839.89
2018-03-06T16:43:43.999Z,97846.91
2018-03-06T16:46:12.079Z,97848.37
2018-03-06T16:48:39.522Z,97852.66
2018-03-06T16:51:07.808Z,97847.34
2018-03-06T16:53:35.300Z,97857.05
2018-03-06T16:56:02.817Z,97856.70
2018-03-06T16:58:33.580Z,97857.16
2018-03-06T17:01:01.131Z,97856.67
2018-03-06T17:03:28.595Z,97859.41
2018-03-06T17:05:56.751Z,97867.82
2018-03-06T17:08:24.200Z,97875.22
2018-03-06T17:10:51.643Z,97876.30
2018-03-06T17:13:19.972Z,97874.05
2018-03-06T17:15:49.639Z,97881.44
2018-03-06T17:18:18.108Z,97886.23
2018-03-06T17:20:45.554Z,97883.74
2018-03-06T17:23:13.931Z,97877.73
2018-03-06T17:25:41.435Z,97880.58
2018-03-06T17:28:09.596Z,97883.13
2018-03-06T17:30:37.043Z,97883.30
2018-03-06T17:33:04.490Z,97881.74
2018-03-06T17:35:31.963Z,97884.67
2018-03-06T17:38:00.602Z,97889.64
2018-03-06T17:40:28.050Z,97887.94
2018-03-06T17:42:56.059Z,97889.56
2018-03-06T17:45:23.620Z,97890.94
2018-03-06T17:47:51.658Z,97895.91
2018-03-06T17:50:19.111Z,97901.50
2018-03-06T17:52:46.568Z,97905.50
2018-03-06T17:55:14.011Z,97910.25
2018-03-06T17:57:41.455Z,97908.22
2018-03-06T18:00:08.905Z,97909.44
2018-03-06T18:02:36.383Z,97906.47
2018-03-06T18:05:03.831Z,97920.11
2018-03-06T18:07:31.288Z,97914.77
2018-03-06T18:09:58.723Z,97913.48
2018-03-06T18:12:26.170Z,97916.70
2018-03-06T18:14:53.612Z,97921.22
2018-03-06T18:17:21.063Z,97916.73
2018-03-06T18:19:48.512Z,97924.03
2018-03-06T18:22:15.964Z,97925.52
2018-03-06T18:24:43.431Z,97927.78
2018-03-06T18:27:11.547Z,97923.66
2018-03-06T18:29:39.035Z,97930.73
2018-03-06T18:32:06.537Z,97928.84
2018-03-06T18:34:34.124Z,97927.48
2018-03-06T18:37:01.651Z,97929.38
2018-03-06T18:39:29.148Z,97933.52
2018-03-06T18:41:56.625Z,97927.37
2018-03-06T18:44:24.095Z,97930.33
2018-03-06T18:46:51.543Z,97926.73
2018-03-06T18:49:19.092Z,97937.28
2018-03-06T18:51:46.542Z,97934.07
2018-03-06T18:54:14.053Z,97931.17
2018-03-06T18:56:41.501Z,97922.14
2018-03-06T18:59:08.987Z,97930.84
2018-03-06T19:01:58.191Z,97931.59
2018-03-06T19:04:37.412Z,97937.05
2018-03-06T19:07:07.780Z,97935.31
2018-03-06T19:09:35.247Z,97943.02
2018-03-06T19:12:02.718Z,97944.51
2018-03-06T19:14:31.606Z,97938.22
2018-03-06T19:17:03.307Z,97937.14
2018-03-06T19:19:31.737Z,97932.50
2018-03-06T19:22:00.276Z,97934.13
2018-03-06T19:24:29.818Z,97928.02
2018-03-06T19:26:58.039Z,97923.23
2018-03-06T19:29:25.515Z,97925.34
2018-03-06T19:31:53.515Z,97929.76
2018-03-06T19:34:20.955Z,97932.29
2018-03-06T19:36:48.380Z,97930.31
2018-03-06T19:39:15.840Z,97931.38
2018-03-06T19:41:43.248Z,97930.70
2018-03-06T19:44:10.727Z,97928.98
2018-03-06T19:46:38.151Z,97936.43
2018-03-06T19:49:05.571Z,97932.81
2018-03-06T19:51:33.214Z,97940.80
2018-03-06T19:54:00.728Z,97943.62
2018-03-06T19:56:28.156Z,97942.55
2018-03-06T19:58:55.569Z,97942.55
2018-03-06T20:01:23.034Z,97949.34
2018-03-06T20:03:50.526Z,97949.64
2018-03-06T20:06:17.948Z,97950.16
2018-03-06T20:08:45.410Z,97948.94
2018-03-06T20:11:12.834Z,97950.30
2018-03-06T20:13:40.276Z,97954.43
2018-03-06T20:16:07.690Z,97948.06
2018-03-06T20:18:35.115Z,97950.55
2018-03-06T20:21:02.538Z,97954.17
2018-03-06T20:23:29.951Z,97956.44
2018-03-06T20:26:00.153Z,97952.56
2018-03-06T20:28:27.572Z,97960.56
2018-03-06T20:31:00.617Z,97961.39
2018-03-06T20:33:28.037Z,97961.11
2018-03-06T20:35:55.453Z,97960.59
2018-03-06T20:38:28.246Z,97963.77
2018-03-06T20:40:55.660Z,97964.33
2018-03-06T20:43:23.083Z,97962.73
2018-03-06T20:45:56.139Z,97966.56
2018-03-06T20:48:23.555Z,97970.83
2018-03-06T20:50:50.966Z,97967.10
2018-03-06T20:56:22.198Z,97962.71
2018-03-06T20:58:49.619Z,97969.49
2018-03-06T21:01:17.030Z,97966.82
2018-03-06T21:03:44.443Z,97965.77
2018-03-06T21:06:11.870Z,97970.81
2018-03-06T21:08:39.286Z,97974.28
2018-03-06T21:11:06.702Z,97968.69
2018-03-06T21:13:34.122Z,97967.38
2018-03-06T21:16:01.538Z,97959.76
2018-03-06T21:18:28.955Z,97966.80
2018-03-06T21:20:56.366Z,97960.00
2018-03-06T21:23:23.775Z,97962.13
2018-03-06T21:25:51.199Z,97961.07
2018-03-06T21:28:18.602Z,97962.66
2018-03-06T21:30:46.189Z,97969.56
2018-03-06T21:33:13.602Z,97969.59
2018-03-06T21:35:41.042Z,97972.25
2018-03-06T21:38:08.454Z,97966.94
2018-03-06T21:40:35.893Z,97969.96
2018-03-06T21:43:03.318Z,97972.89
2018-03-06T21:45:30.758Z,97975.14
2018-03-06T21:47:58.178Z,97974.89
2018-03-06T21:50:25.590Z,97973.97
2018-03-06T21:52:53.009Z,97980.36
2018-03-06T21:55:20.417Z,97978.64
2018-03-06T21:57:47.837Z,97973.98
2018-03-06T22:00:15.248Z,97982.88
2018-03-06T22:02:42.666Z,97981.53
2018-03-06T22:05:10.082Z,97986.59
2018-03-06T22:07:37.505Z,97982.43
2018-03-06T22:10:04.913Z,97996.72
2018-03-06T22:12:32.330Z,97991.64
2018-03-06T22:14:59.742Z,97989.24
2018-03-06T22:17:27.223Z,97996.55
2018-03-06T22:19:54.625Z,97992.78
2018-03-06T22:22:22.064Z,97994.48
2018-03-06T22:24:49.475Z,97998.18
2018-03-06T22:27:16.890Z,97998.56
2018-03-06T22:29:44.302Z,97998.45
2018-03-06T22:32:11.718Z,97998.18
2018-03-06T22:34:39.140Z,97993.25
2018-03-06T22:37:06.541Z,98004.03
2018-03-06T22:39:33.957Z,97997.26
2018-03-06T22:42:01.376Z,98007.47
2018-03-06T22:44:28.792Z,97996.30
2018-03-06T22:46:56.206Z,97999.91
2018-03-06T22:49:23.631Z,97999.75
2018-03-06T22:51:51.033Z,97999.48
2018-03-06T22:54:18.457Z,97999.39
2018-03-06T22:56:45.859Z,97994.75
2018-03-06T22:59:13.275Z,98001.12
2018-03-06T23:01:40.678Z,98007.91
2018-03-06T23:04:08.090Z,98003.50
2018-03-06T23:06:35.509Z,98009.20
2018-03-06T23:09:02.905Z,98009.72
2018-03-06T23:11:30.318Z,98003.61
2018-03-06T23:13:57.741Z,98006.68
2018-03-06T23:16:25.149Z,98010.67
2018-03-06T23:18:52.561Z,98013.55
2018-03-06T23:21:19.970Z,98013.77
2018-03-06T23:23:47.378Z,98022.02
2018-03-06T23:26:14.789Z,98020.17
2018-03-06T23:28:42.238Z,98022.00
2018-03-06T23:31:09.646Z,98021.41
2018-03-06T23:33:37.055Z,98017.83
2018-03-06T23:36:04.481Z,98017.04
2018-03-06T23:38:31.903Z,98018.78
2018-03-06T23:40:59.314Z,98011.75
2018-03-06T23:43:26.722Z,98020.05
2018-03-06T23:45:54.122Z,98015.91
2018-03-06T23:48:21.537Z,98016.45
2018-03-06T23:50:48.946Z,98016.70
2018-03-06T23:53:16.366Z,98014.14
2018-03-06T23:55:43.786Z,98012.47
2018-03-06T23:58:11.189Z,98016.72
